createdAt,value
2019-05-10T00:02:10.240Z,61.50
2019-05-10T00:04:55.485Z,61.50
2019-05-10T00:07:40.789Z,61.50
2019-05-10T00:10:07.193Z,61.50
2019-05-10T00:12:51.836Z,61.50
2019-05-10T00:15:20.564Z,61.30
2019-05-10T00:17:47.273Z,61.30
2019-05-10T00:20:13.840Z,61.30
2019-05-10T00:22:40.467Z,62.10
2019-05-10T00:25:06.942Z,61.30
2019-05-10T00:27:33.653Z,61.30
2019-05-10T00:30:00.407Z,61.30
2019-05-10T00:32:27.219Z,61.30
2019-05-10T00:34:53.978Z,61.30
2019-05-10T00:37:20.897Z,61.30
2019-05-10T00:39:47.963Z,61.30
2019-05-10T00:42:14.618Z,61.30
2019-05-10T00:44:41.423Z,61.30
2019-05-10T00:47:07.987Z,61.40
2019-05-10T00:49:34.557Z,61.50
2019-05-10T00:52:02.570Z,61.50
2019-05-10T00:54:29.279Z,61.50
2019-05-10T00:56:55.620Z,61.60
2019-05-10T00:59:22.430Z,61.50
2019-05-10T01:01:49.033Z,61.50
2019-05-10T01:04:15.857Z,62.30
2019-05-10T01:06:42.929Z,61.60
2019-05-10T01:09:12.256Z,61.70
2019-05-10T01:11:39.699Z,61.70
2019-05-10T01:14:06.942Z,61.70
2019-05-10T01:16:33.580Z,62.00
2019-05-10T01:19:00.295Z,61.90
2019-05-10T01:21:26.886Z,62.00
2019-05-10T01:23:53.517Z,62.00
2019-05-10T01:26:19.953Z,62.10
2019-05-10T01:28:46.741Z,62.00
2019-05-10T01:31:13.360Z,62.10
2019-05-10T01:33:39.798Z,62.00
2019-05-10T01:36:06.656Z,62.00
2019-05-10T01:38:33.517Z,62.10
2019-05-10T01:41:00.062Z,62.00
2019-05-10T01:43:26.879Z,62.20
2019-05-10T01:45:53.330Z,62.00
2019-05-10T01:48:19.677Z,62.00
2019-05-10T01:50:46.104Z,62.30
2019-05-10T01:53:12.732Z,62.10
2019-05-10T01:55:51.407Z,62.30
2019-05-10T01:58:07.774Z,62.40
2019-05-10T02:00:38.416Z,62.60
2019-05-10T02:03:12.503Z,62.40
2019-05-10T02:05:40.249Z,62.50
2019-05-10T02:08:06.905Z,62.40
2019-05-10T02:10:33.458Z,62.60
2019-05-10T02:13:00.075Z,62.70
2019-05-10T02:15:27.115Z,62.60
2019-05-10T02:17:53.767Z,62.70
2019-05-10T02:20:20.295Z,62.60
2019-05-10T02:22:46.928Z,62.70
2019-05-10T02:25:13.545Z,62.80
2019-05-10T02:27:40.201Z,62.80
2019-05-10T02:30:07.052Z,62.90
2019-05-10T02:32:34.020Z,62.90
2019-05-10T02:35:02.144Z,62.90
2019-05-10T02:37:28.700Z,63.00
2019-05-10T02:39:55.441Z,62.80
2019-05-10T02:42:22.091Z,63.00
2019-05-10T02:44:48.722Z,63.00
2019-05-10T02:47:15.347Z,63.10
2019-05-10T02:49:41.989Z,63.10
2019-05-10T02:52:08.337Z,63.10
2019-05-10T02:54:35.085Z,63.00
2019-05-10T02:57:01.628Z,63.10
2019-05-10T02:59:28.239Z,63.10
2019-05-10T03:01:56.131Z,63.10
2019-05-10T03:04:22.747Z,62.90
2019-05-10T03:06:49.358Z,62.90
2019-05-10T03:09:16.324Z,63.50
2019-05-10T03:11:46.285Z,63.60
2019-05-10T03:14:13.025Z,63.00
2019-05-10T03:16:45.313Z,62.70
2019-05-10T03:19:15.105Z,62.90
2019-05-10T03:21:41.417Z,62.80
2019-05-10T03:24:08.184Z,62.90
2019-05-10T03:26:50.358Z,62.80
2019-05-10T03:29:08.164Z,63.30
2019-05-10T03:31:35.302Z,61.40
2019-05-10T03:34:01.908Z,61.10
2019-05-10T03:36:28.716Z,61.50
2019-05-10T03:38:55.179Z,61.80
2019-05-10T03:41:21.809Z,61.50
2019-05-10T03:43:48.352Z,62.00
2019-05-10T03:46:14.820Z,61.80
2019-05-10T03:48:41.480Z,62.00
2019-05-10T03:51:08.014Z,62.50
2019-05-10T03:53:34.593Z,62.50
2019-05-10T03:56:01.107Z,63.40
2019-05-10T03:58:27.735Z,62.90
2019-05-10T04:00:54.360Z,62.90
2019-05-10T04:03:21.230Z,62.80
2019-05-10T04:05:47.723Z,63.00
2019-05-10T04:08:13.976Z,63.00
2019-05-10T04:10:43.874Z,63.00
2019-05-10T04:13:10.402Z,63.10
2019-05-10T04:15:37.021Z,63.00
2019-05-10T04:18:03.773Z,62.90
2019-05-10T04:20:30.685Z,62.90
2019-05-10T04:22:57.380Z,63.10
2019-05-10T04:25:23.828Z,63.10
2019-05-10T04:27:50.539Z,63.10
2019-05-10T04:30:17.312Z,62.30
2019-05-10T04:32:43.757Z,62.30
2019-05-10T04:35:10.360Z,63.00
2019-05-10T04:37:36.806Z,63.10
2019-05-10T04:40:06.743Z,63.10
2019-05-10T04:42:33.311Z,63.00
2019-05-10T04:44:59.863Z,63.00
2019-05-10T04:47:26.181Z,63.10
2019-05-10T04:49:55.266Z,63.10
2019-05-10T04:52:22.336Z,62.80
2019-05-10T04:54:48.733Z,63.00
2019-05-10T04:57:15.446Z,63.00
2019-05-10T04:59:41.977Z,62.90
2019-05-10T05:02:08.533Z,62.80
2019-05-10T05:04:35.074Z,62.70
2019-05-10T05:07:01.503Z,62.70
2019-05-10T05:09:27.959Z,62.50
2019-05-10T05:11:54.674Z,62.40
2019-05-10T05:14:21.298Z,62.30
2019-05-10T05:16:47.688Z,62.30
2019-05-10T05:19:14.273Z,62.50
2019-05-10T05:21:40.683Z,62.40
2019-05-10T05:24:07.333Z,62.70
2019-05-10T05:26:33.755Z,62.80
2019-05-10T05:29:00.399Z,62.50
2019-05-10T05:31:26.747Z,62.80
2019-05-10T05:33:53.252Z,62.80
2019-05-10T05:36:19.916Z,62.70
2019-05-10T05:38:53.742Z,62.60
2019-05-10T05:41:20.441Z,62.50
2019-05-10T05:43:48.242Z,62.50
2019-05-10T05:46:14.986Z,62.50
2019-05-10T05:48:41.660Z,62.50
2019-05-10T05:51:08.621Z,62.30
2019-05-10T05:53:42.235Z,62.10
2019-05-10T05:56:12.855Z,62.30
2019-05-10T05:58:38.230Z,62.90
2019-05-10T06:01:03.669Z,62.10
2019-05-10T06:03:30.204Z,62.10
2019-05-10T06:05:57.180Z,62.10
2019-05-10T06:08:25.034Z,62.10
2019-05-10T06:10:57.934Z,62.10
2019-05-10T06:13:23.381Z,62.10
2019-05-10T06:15:48.607Z,62.20
2019-05-10T06:18:15.447Z,62.10
2019-05-10T06:20:44.437Z,61.80
2019-05-10T06:23:10.608Z,61.70
2019-05-10T06:25:39.888Z,61.60
2019-05-10T06:28:12.771Z,61.30
2019-05-10T06:30:33.811Z,61.70
2019-05-10T06:33:11.484Z,61.50
2019-05-10T06:35:28.806Z,61.60
2019-05-10T06:37:55.352Z,61.20
2019-05-10T06:40:32.637Z,61.10
2019-05-10T06:42:50.134Z,61.20
2019-05-10T06:45:16.636Z,61.70
2019-05-10T06:47:47.944Z,61.50
2019-05-10T06:50:12.130Z,61.70
2019-05-10T06:52:38.563Z,61.60
2019-05-10T06:55:05.688Z,61.50
2019-05-10T06:57:32.308Z,61.30
2019-05-10T07:00:06.250Z,61.50
2019-05-10T07:02:32.314Z,62.00
2019-05-10T07:04:56.061Z,62.20
2019-05-10T07:07:42.435Z,62.30
2019-05-10T07:10:17.660Z,63.70
2019-05-10T07:12:19.619Z,65.50
2019-05-10T07:14:49.994Z,66.40
2019-05-10T07:17:17.657Z,70.00
2019-05-10T07:19:53.554Z,70.00
2019-05-10T07:22:13.122Z,71.70
2019-05-10T07:24:39.982Z,70.20
2019-05-10T07:27:06.859Z,66.90
2019-05-10T07:29:41.935Z,66.20
2019-05-10T07:32:01.542Z,66.30
2019-05-10T07:34:28.160Z,67.10
2019-05-10T07:36:54.571Z,66.20
2019-05-10T07:39:21.328Z,66.40
2019-05-10T07:41:47.906Z,66.20
2019-05-10T07:44:14.568Z,67.50
2019-05-10T07:46:47.100Z,66.30
2019-05-10T07:49:09.435Z,67.70
2019-05-10T07:51:36.183Z,66.70
2019-05-10T07:54:04.725Z,66.20
2019-05-10T07:56:31.268Z,65.80
2019-05-10T07:59:00.568Z,65.80
2019-05-10T08:01:32.354Z,66.20
2019-05-10T08:03:55.364Z,66.20
2019-05-10T08:06:21.897Z,66.10
2019-05-10T08:08:49.623Z,66.00
2019-05-10T08:11:18.960Z,66.20
2019-05-10T08:13:44.625Z,66.30
2019-05-10T08:16:18.920Z,66.00
2019-05-10T08:18:42.432Z,66.10
2019-05-10T08:21:20.958Z,66.00
2019-05-10T08:23:36.875Z,65.90
2019-05-10T08:26:04.476Z,65.90
2019-05-10T08:28:34.168Z,66.70
2019-05-10T08:30:59.593Z,66.90
2019-05-10T08:33:26.776Z,67.60
2019-05-10T08:36:00.729Z,68.50
2019-05-10T08:38:22.420Z,67.80
2019-05-10T08:40:49.340Z,68.10
2019-05-10T08:43:39.241Z,68.10
2019-05-10T08:46:07.541Z,67.80
2019-05-10T08:48:38.190Z,69.30
2019-05-10T08:51:07.502Z,69.50
2019-05-10T08:53:34.742Z,68.50
2019-05-10T08:56:02.245Z,68.40
2019-05-10T08:58:35.388Z,68.30
2019-05-10T09:01:15.443Z,68.60
2019-05-10T09:03:27.784Z,69.00
2019-05-10T09:05:54.319Z,68.40
2019-05-10T09:08:24.404Z,69.10
2019-05-10T09:10:49.283Z,69.60
2019-05-10T09:13:16.137Z,70.40
2019-05-10T09:15:51.462Z,70.20
2019-05-10T09:18:16.595Z,71.40
2019-05-10T09:20:43.261Z,70.30
2019-05-10T09:23:17.893Z,70.80
2019-05-10T09:25:42.682Z,70.90
2019-05-10T09:28:16.879Z,70.80
2019-05-10T09:30:37.160Z,70.90
2019-05-10T09:33:08.664Z,72.00
2019-05-10T09:35:33.051Z,71.40
2019-05-10T09:38:01.765Z,71.80
2019-05-10T09:40:28.129Z,73.20
2019-05-10T09:42:54.762Z,73.30
2019-05-10T09:45:24.150Z,71.70
2019-05-10T09:47:50.183Z,72.30
2019-05-10T09:50:17.154Z,71.20
2019-05-10T09:52:43.827Z,71.80
2019-05-10T09:55:14.572Z,71.80
2019-05-10T09:57:38.828Z,72.20
2019-05-10T10:00:07.309Z,71.40
2019-05-10T10:02:37.315Z,60.80
2019-05-10T10:05:07.458Z,53.20
2019-05-10T10:07:33.782Z,52.70
2019-05-10T10:10:00.402Z,52.00
2019-05-10T10:12:28.929Z,51.60
2019-05-10T10:14:55.440Z,52.70
2019-05-10T10:17:30.781Z,56.70
2019-05-10T10:19:57.980Z,59.20
2019-05-10T10:22:27.705Z,60.10
2019-05-10T10:24:57.044Z,60.60
2019-05-10T10:27:26.013Z,62.80
2019-05-10T10:29:52.550Z,61.80
2019-05-10T10:32:18.992Z,63.90
2019-05-10T10:34:45.923Z,63.40
2019-05-10T10:37:14.687Z,63.50
2019-05-10T10:39:41.125Z,64.40
2019-05-10T10:42:11.698Z,65.60
2019-05-10T10:44:37.117Z,66.50
2019-05-10T10:47:03.880Z,67.30
2019-05-10T10:49:31.924Z,67.90
2019-05-10T10:51:59.951Z,67.90
2019-05-10T10:54:28.008Z,68.60
2019-05-10T10:56:59.033Z,67.90
2019-05-10T10:59:23.075Z,68.50
2019-05-10T11:02:04.682Z,69.30
2019-05-10T11:04:18.543Z,69.80
2019-05-10T11:06:45.399Z,69.60
2019-05-10T11:09:13.625Z,69.80
2019-05-10T11:11:44.441Z,70.10
2019-05-10T11:14:11.056Z,70.00
2019-05-10T11:16:37.534Z,70.20
2019-05-10T11:19:10.032Z,70.40
2019-05-10T11:21:33.439Z,70.20
2019-05-10T11:24:01.413Z,70.10
2019-05-10T11:26:32.944Z,71.00
2019-05-10T11:28:57.409Z,69.90
2019-05-10T11:31:25.270Z,70.50
2019-05-10T11:33:53.606Z,70.50
2019-05-10T11:36:21.145Z,70.10
2019-05-10T11:38:53.610Z,70.00
2019-05-10T11:41:21.363Z,70.20
2019-05-10T11:43:44.732Z,70.80
2019-05-10T11:46:11.862Z,70.20
2019-05-10T11:48:41.729Z,70.40
2019-05-10T11:51:12.332Z,70.50
2019-05-10T11:53:35.704Z,70.70
2019-05-10T11:56:07.457Z,70.60
2019-05-10T11:58:31.217Z,70.80
2019-05-10T12:01:02.384Z,70.50
2019-05-10T12:03:26.740Z,71.10
2019-05-10T12:06:04.547Z,71.20
2019-05-10T12:08:22.463Z,69.90
2019-05-10T12:10:56.662Z,69.50
2019-05-10T12:13:20.849Z,69.50
2019-05-10T12:15:46.006Z,70.00
2019-05-10T12:18:14.671Z,52.80
2019-05-10T12:20:54.733Z,53.20
2019-05-10T12:23:13.275Z,56.50
2019-05-10T12:25:53.113Z,57.20
2019-05-10T12:28:08.523Z,58.00
2019-05-10T12:30:37.198Z,58.80
2019-05-10T12:33:08.929Z,59.50
2019-05-10T12:35:39.854Z,60.30
2019-05-10T12:38:01.692Z,61.00
2019-05-10T12:40:28.350Z,61.70
2019-05-10T12:42:54.950Z,63.10
2019-05-10T12:45:23.343Z,62.90
2019-05-10T12:47:51.794Z,63.30
2019-05-10T12:50:18.800Z,63.50
2019-05-10T12:52:53.127Z,63.70
2019-05-10T12:55:13.672Z,64.10
2019-05-10T12:57:43.260Z,64.50
2019-05-10T13:00:13.288Z,65.30
2019-05-10T13:02:37.390Z,65.90
2019-05-10T13:05:05.056Z,66.30
2019-05-10T13:07:31.682Z,66.80
2019-05-10T13:10:04.209Z,67.50
2019-05-10T13:12:26.598Z,67.50
2019-05-10T13:14:53.229Z,67.80
2019-05-10T13:17:19.908Z,68.20
2019-05-10T13:19:46.546Z,68.20
2019-05-10T13:22:13.412Z,68.20
2019-05-10T13:24:41.541Z,68.40
2019-05-10T13:27:08.281Z,68.70
2019-05-10T13:29:34.817Z,69.00
2019-05-10T13:32:01.970Z,68.90
2019-05-10T13:34:28.815Z,69.30
2019-05-10T13:36:55.358Z,69.50
2019-05-10T13:39:25.669Z,69.20
2019-05-10T13:41:50.137Z,69.00
2019-05-10T13:44:16.775Z,69.00
2019-05-10T13:46:43.544Z,68.90
2019-05-10T13:49:11.072Z,68.70
2019-05-10T13:51:37.925Z,68.60
2019-05-10T13:54:05.307Z,68.60
2019-05-10T13:56:32.656Z,68.40
2019-05-10T13:59:13.767Z,68.20
2019-05-10T14:01:29.924Z,68.30
2019-05-10T14:04:01.024Z,68.30
2019-05-10T14:06:25.951Z,68.20
2019-05-10T14:08:52.576Z,68.30
2019-05-10T14:11:19.387Z,68.10
2019-05-10T14:13:47.395Z,68.00
2019-05-10T14:16:19.612Z,67.80
2019-05-10T14:18:43.017Z,67.70
2019-05-10T14:21:09.569Z,53.70
2019-05-10T14:23:37.348Z,51.30
2019-05-10T14:26:09.126Z,50.50
2019-05-10T14:28:33.053Z,51.80
2019-05-10T14:30:59.935Z,55.10
2019-05-10T14:33:26.459Z,55.10
2019-05-10T14:35:55.123Z,54.90
2019-05-10T14:38:22.906Z,55.70
2019-05-10T14:40:50.039Z,56.00
2019-05-10T14:43:16.507Z,56.60
2019-05-10T14:45:43.366Z,57.00
2019-05-10T14:48:09.801Z,57.60
2019-05-10T14:50:36.931Z,58.20
2019-05-10T14:53:03.763Z,58.60
2019-05-10T14:55:34.616Z,58.80
2019-05-10T14:57:58.715Z,60.00
2019-05-10T15:00:25.337Z,59.70
2019-05-10T15:02:56.510Z,60.10
2019-05-10T15:05:20.734Z,60.80
2019-05-10T15:07:50.929Z,60.70
2019-05-10T15:10:15.743Z,60.60
2019-05-10T15:12:42.614Z,61.00
2019-05-10T15:15:09.421Z,61.30
2019-05-10T15:17:36.171Z,61.50
2019-05-10T15:20:05.048Z,61.70
2019-05-10T15:22:31.787Z,62.10
2019-05-10T15:24:58.322Z,62.10
2019-05-10T15:27:24.889Z,62.30
2019-05-10T15:29:58.640Z,62.10
2019-05-10T15:32:22.951Z,62.60
2019-05-10T15:35:05.467Z,62.80
2019-05-10T15:37:18.175Z,63.30
2019-05-10T15:39:44.828Z,63.50
2019-05-10T15:42:11.462Z,63.30
2019-05-10T15:44:38.594Z,63.30
2019-05-10T15:47:05.743Z,63.10
2019-05-10T15:49:32.624Z,63.30
2019-05-10T15:52:16.372Z,63.00
2019-05-10T15:54:27.648Z,63.10
2019-05-10T15:56:55.928Z,63.00
2019-05-10T15:59:22.852Z,63.20
2019-05-10T16:01:49.563Z,63.30
2019-05-10T16:04:16.419Z,63.30
2019-05-10T16:06:42.945Z,63.30
2019-05-10T16:09:17.491Z,63.30
2019-05-10T16:11:42.774Z,63.30
2019-05-10T16:14:09.657Z,63.30
2019-05-10T16:16:37.659Z,63.30
2019-05-10T16:19:04.836Z,63.40
2019-05-10T16:21:31.540Z,63.60
2019-05-10T16:23:58.219Z,63.90
2019-05-10T16:26:24.692Z,63.70
2019-05-10T16:28:53.123Z,63.90
2019-05-10T16:31:19.665Z,58.30
2019-05-10T16:33:48.206Z,55.90
2019-05-10T16:36:14.552Z,56.60
2019-05-10T16:38:41.341Z,57.50
2019-05-10T16:41:08.577Z,57.20
2019-05-10T16:43:35.131Z,57.10
2019-05-10T16:46:02.276Z,57.30
2019-05-10T16:48:29.293Z,57.50
2019-05-10T16:50:55.944Z,58.10
2019-05-10T16:53:22.792Z,58.30
2019-05-10T16:55:49.825Z,58.30
2019-05-10T16:58:18.046Z,58.40
2019-05-10T17:00:46.385Z,58.40
2019-05-10T17:03:18.353Z,58.40
2019-05-10T17:05:53.146Z,58.40
2019-05-10T17:08:10.637Z,58.50
2019-05-10T17:10:37.454Z,58.60
2019-05-10T17:13:06.536Z,58.60
2019-05-10T17:15:33.826Z,58.70
2019-05-10T17:18:02.058Z,58.80
2019-05-10T17:20:28.913Z,58.80
2019-05-10T17:23:07.690Z,58.90
2019-05-10T17:25:24.220Z,59.00
2019-05-10T17:27:57.489Z,59.10
2019-05-10T17:30:21.609Z,59.20
2019-05-10T17:32:47.554Z,59.30
2019-05-10T17:35:14.089Z,59.30
2019-05-10T17:37:40.760Z,59.30
2019-05-10T17:40:10.036Z,62.20
2019-05-10T17:42:41.164Z,62.20
2019-05-10T17:45:15.611Z,62.30
2019-05-10T17:47:42.336Z,63.20
2019-05-10T17:50:09.464Z,63.80
2019-05-10T17:52:36.048Z,63.90
2019-05-10T17:55:05.140Z,64.30
2019-05-10T17:57:31.755Z,64.90
2019-05-10T17:59:58.369Z,65.10
2019-05-10T18:02:25.016Z,67.20
2019-05-10T18:04:51.621Z,67.70
2019-05-10T18:07:18.279Z,68.20
2019-05-10T18:09:46.509Z,67.40
2019-05-10T18:12:15.677Z,68.10
2019-05-10T18:14:41.880Z,68.20
2019-05-10T18:17:08.756Z,67.00
2019-05-10T18:19:35.566Z,66.50
2019-05-10T18:22:06.242Z,66.30
2019-05-10T18:24:36.390Z,66.30
2019-05-10T18:26:59.181Z,66.30
2019-05-10T18:29:26.049Z,66.10
2019-05-10T18:31:55.854Z,67.40
2019-05-10T18:34:26.274Z,67.40
2019-05-10T18:36:51.453Z,67.10
2019-05-10T18:39:18.065Z,67.30
2019-05-10T18:41:46.411Z,67.80
2019-05-10T18:44:14.583Z,67.50
2019-05-10T18:46:42.512Z,67.10
2019-05-10T18:49:09.249Z,67.10
2019-05-10T18:51:35.896Z,66.60
2019-05-10T18:54:03.045Z,66.90
2019-05-10T18:56:31.161Z,67.40
2019-05-10T18:59:06.868Z,66.40
2019-05-10T19:01:26.806Z,66.30
2019-05-10T19:03:53.480Z,67.40
2019-05-10T19:06:20.382Z,67.60
2019-05-10T19:08:47.092Z,68.20
2019-05-10T19:11:14.291Z,66.80
2019-05-10T19:13:48.204Z,67.40
2019-05-10T19:16:09.342Z,66.30
2019-05-10T19:18:36.637Z,66.40
2019-05-10T19:21:03.554Z,66.40
2019-05-10T19:23:31.131Z,66.50
2019-05-10T19:25:57.793Z,66.40
2019-05-10T19:28:26.707Z,66.20
2019-05-10T19:30:58.474Z,66.40
2019-05-10T19:33:21.434Z,67.00
2019-05-10T19:35:47.968Z,66.20
2019-05-10T19:38:14.809Z,66.10
2019-05-10T19:40:41.654Z,66.20
2019-05-10T19:43:08.803Z,66.20
2019-05-10T19:45:37.287Z,66.10
2019-05-10T19:48:05.902Z,65.60
2019-05-10T19:50:33.191Z,66.80
2019-05-10T19:53:03.850Z,67.20
2019-05-10T19:55:28.880Z,68.40
2019-05-10T19:57:56.632Z,66.50
2019-05-10T20:00:23.487Z,66.70
2019-05-10T20:02:50.534Z,66.80
2019-05-10T20:05:17.150Z,66.70
2019-05-10T20:07:46.239Z,67.00
2019-05-10T20:10:12.155Z,66.80
2019-05-10T20:12:38.693Z,67.10
2019-05-10T20:15:05.747Z,67.10
2019-05-10T20:17:32.663Z,67.40
2019-05-10T20:19:59.368Z,66.60
2019-05-10T20:22:25.997Z,67.20
2019-05-10T20:24:52.505Z,66.50
2019-05-10T20:27:18.971Z,66.50
2019-05-10T20:29:45.705Z,67.20
2019-05-10T20:32:12.239Z,66.40
2019-05-10T20:34:38.779Z,66.40
2019-05-10T20:37:05.248Z,66.40
2019-05-10T20:39:32.031Z,66.40
2019-05-10T20:41:58.491Z,66.20
2019-05-10T20:44:25.160Z,66.30
2019-05-10T20:46:51.686Z,66.40
2019-05-10T20:49:23.707Z,66.20
2019-05-10T20:51:50.324Z,66.40
2019-05-10T20:54:17.075Z,66.00
2019-05-10T20:56:43.508Z,66.00
2019-05-10T20:59:10.159Z,65.90
2019-05-10T21:01:36.800Z,66.00
2019-05-10T21:04:03.152Z,66.00
2019-05-10T21:06:29.784Z,66.00
2019-05-10T21:08:56.196Z,65.80
2019-05-10T21:11:22.522Z,65.90
2019-05-10T21:13:48.939Z,65.90
2019-05-10T21:16:15.396Z,66.00
2019-05-10T21:18:41.929Z,65.90
2019-05-10T21:21:08.501Z,65.90
2019-05-10T21:23:36.939Z,65.70
2019-05-10T21:26:03.883Z,65.70
2019-05-10T21:28:30.366Z,66.00
2019-05-10T21:30:56.952Z,65.80
2019-05-10T21:33:23.401Z,65.70
2019-05-10T21:35:50.036Z,65.80
2019-05-10T21:38:31.624Z,66.00
2019-05-10T21:40:45.063Z,66.00
2019-05-10T21:43:11.838Z,65.70
2019-05-10T21:45:38.273Z,65.80
2019-05-10T21:48:04.909Z,65.80
2019-05-10T21:50:31.411Z,65.80
2019-05-10T21:52:57.853Z,65.80
2019-05-10T21:55:24.377Z,65.80
2019-05-10T21:57:51.239Z,65.70
2019-05-10T22:00:19.610Z,65.80
2019-05-10T22:02:46.383Z,65.80
2019-05-10T22:05:13.058Z,65.80
2019-05-10T22:07:41.638Z,65.90
2019-05-10T22:10:08.519Z,65.70
2019-05-10T22:12:38.206Z,65.70
2019-05-10T22:15:07.915Z,65.90
2019-05-10T22:17:35.203Z,66.00
2019-05-10T22:20:03.438Z,66.00
2019-05-10T22:22:30.019Z,66.20
2019-05-10T22:24:56.424Z,66.20
2019-05-10T22:27:23.246Z,66.30
2019-05-10T22:29:50.088Z,66.50
2019-05-10T22:32:16.536Z,66.50
2019-05-10T22:34:43.592Z,66.60
2019-05-10T22:37:10.169Z,66.60
2019-05-10T22:39:36.631Z,66.80
2019-05-10T22:42:03.209Z,66.90
2019-05-10T22:44:29.943Z,66.80
2019-05-10T22:46:59.530Z,66.80
2019-05-10T22:49:26.086Z,67.00
2019-05-10T22:51:52.905Z,67.00
2019-05-10T22:54:19.546Z,66.90
2019-05-10T22:56:46.197Z,66.90
2019-05-10T22:59:13.046Z,66.90
2019-05-10T23:01:39.560Z,66.90
2019-05-10T23:04:06.399Z,66.80
2019-05-10T23:06:33.278Z,66.80
2019-05-10T23:08:59.941Z,67.00
2019-05-10T23:11:26.372Z,66.90
2019-05-10T23:13:53.295Z,67.10
2019-05-10T23:16:19.595Z,67.10
2019-05-10T23:18:46.260Z,67.20
2019-05-10T23:21:12.785Z,67.10
2019-05-10T23:23:39.217Z,67.10
2019-05-10T23:26:05.870Z,66.90
2019-05-10T23:28:32.306Z,66.90
2019-05-10T23:30:59.029Z,66.70
2019-05-10T23:33:25.797Z,66.70
2019-05-10T23:35:52.748Z,66.70
2019-05-10T23:38:19.779Z,66.70
2019-05-10T23:40:46.427Z,66.80
2019-05-10T23:43:12.913Z,66.60
2019-05-10T23:45:39.412Z,66.60
2019-05-10T23:48:06.396Z,66.60
2019-05-10T23:50:33.038Z,66.60
2019-05-10T23:52:59.588Z,67.20
2019-05-10T23:55:26.237Z,66.50
2019-05-10T23:57:52.781Z,66.60
